Time;durP1;ratioP1;P1;durP2;ratioP2;P2;SDS_P1;SDS_P2;PMS_P1;PMS_P2;Temp;Humidity;BMP_temperature;BMP_pressure;BME280_temperature;BME280_humidity;BME280_pressure;Samples;Min_cycle;Max_cycle;Signal;HPM_P1;HPM_P2
2023/08/05 00:00:44;;;;;;;0.10;0.10;;;;;;;21.23;60.32;98771.34;4443500;32;20109;-93
2023/08/05 00:03:09;;;;;;;1.05;0.37;;;;;;;20.79;60.29;98741.81;4431406;32;20077;-94
2023/08/05 00:05:42;;;;;;;0.00;0.00;;;;;;;20.73;60.30;98760.91;4441760;32;20147;-94
2023/08/05 00:08:53;;;;;;;0.00;0.00;;;;;;;20.70;60.29;98799.03;4432291;32;20127;-93
2023/08/05 00:23:11;;;;;;;0.03;0.03;;;;;;;20.64;60.29;98728.19;4288665;33;20095;-95
2023/08/05 00:25:45;;;;;;;0.00;0.00;;;;;;;20.43;60.29;98733.56;4309893;33;20113;-95
2023/08/05 00:28:46;;;;;;;;;;;;;;;;;;;;;
2023/08/05 00:32:17;;;;;;;0.00;0.00;;;;;;;20.28;60.27;98756.03;4347012;32;35037;-95
2023/08/05 00:56:35;;;;;;;0.25;0.10;;;;;;;21.29;60.32;98527.31;4233921;33;20090;-94
2023/08/05 01:06:12;;;;;;;;;;;;;;;;;;;;;
2023/08/05 01:08:38;;;;;;;0.20;0.20;;;;;;;21.35;60.33;98633.47;4281675;33;35626;-95
2023/08/05 01:11:03;;;;;;;0.00;0.00;;;;;;;21.43;60.34;98630.09;4257265;33;20117;-94
2023/08/05 01:13:31;;;;;;;0.20;0.20;;;;;;;21.70;60.34;98600.13;4258191;33;20151;-94
2023/08/05 01:15:57;;;;;;;0.28;0.28;;;;;;;21.78;60.35;98575.59;4269130;33;20831;-93
2023/08/05 01:18:24;;;;;;;0.25;0.25;;;;;;;21.84;60.35;98572.31;4269119;33;20172;-94
2023/08/05 01:20:52;;;;;;;0.20;0.20;;;;;;;21.89;60.36;98568.25;4275876;33;20204;-94
2023/08/05 01:23:20;;;;;;;0.00;0.00;;;;;;;22.04;60.37;98581.84;4272622;33;20082;-93
2023/08/05 01:25:46;;;;;;;0.00;0.00;;;;;;;22.10;60.36;98568.00;4285947;33;20069;-93
2023/08/05 01:28:11;;;;;;;1.05;0.93;;;;;;;22.01;60.36;98574.19;4310376;33;20099;-93
2023/08/05 01:30:37;;;;;;;0.22;0.22;;;;;;;22.14;60.37;98576.47;4283041;33;20175;-93
2023/08/05 01:33:02;;;;;;;0.20;0.20;;;;;;;21.98;60.36;98606.25;4292055;33;20152;-92
2023/08/05 01:35:28;;;;;;;0.35;0.25;;;;;;;21.90;60.36;98685.66;4296223;33;20118;-92
2023/08/05 01:37:53;;;;;;;0.30;0.30;;;;;;;21.89;60.36;98678.69;4285034;33;20104;-92
2023/08/05 01:40:29;;;;;;;0.90;0.62;;;;;;;22.06;60.36;98614.34;4284758;33;20104;-94
2023/08/05 01:43:07;;;;;;;1.02;0.52;;;;;;;22.34;60.38;98586.78;4320195;33;20103;-93
2023/08/05 01:45:34;;;;;;;0.08;0.08;;;;;;;22.08;60.36;98580.56;4310158;33;20157;-93
2023/08/05 01:48:00;;;;;;;0.03;0.03;;;;;;;22.10;60.36;98613.06;4297136;33;20183;-93
2023/08/05 01:50:44;;;;;;;;;;;;;;;;;;;;;
2023/08/05 01:53:22;;;;;;;0.35;0.35;;;;;;;22.26;60.36;98573.47;4309324;33;35250;-93
2023/08/05 01:56:08;;;;;;;2.92;0.93;;;;;;;22.19;60.36;98553.81;4297280;33;20092;-93
2023/08/05 01:58:43;;;;;;;0.03;0.03;;;;;;;22.16;60.37;98524.97;4297739;33;20102;-94
2023/08/05 02:01:11;;;;;;;0.10;0.10;;;;;;;22.24;60.37;98538.31;4308110;33;20108;-94
2023/08/05 02:03:39;;;;;;;0.28;0.28;;;;;;;22.15;60.37;98514.53;4308997;33;20124;-93
2023/08/05 02:06:04;;;;;;;0.00;0.00;;;;;;;22.20;60.37;98525.50;4308529;33;20123;-94
2023/08/05 02:08:30;;;;;;;0.00;0.00;;;;;;;21.97;60.36;98541.81;4308863;33;20096;-93
2023/08/05 02:10:55;;;;;;;0.43;0.43;;;;;;;22.13;60.37;98530.59;4308604;33;20476;-94
2023/08/05 02:13:21;;;;;;;0.20;0.20;;;;;;;22.27;60.38;98492.13;4321263;33;20108;-94
2023/08/05 02:15:46;;;;;;;0.10;0.10;;;;;;;22.25;60.37;98464.94;4308934;33;20158;-94
2023/08/05 02:18:14;;;;;;;1.37;0.60;;;;;;;22.33;60.38;98470.28;4308937;33;20460;-94
2023/08/05 02:20:39;;;;;;;0.10;0.10;;;;;;;22.33;60.37;98480.91;4308566;33;20095;-95
2023/08/05 02:23:05;;;;;;;0.00;0.00;;;;;;;22.11;60.36;98470.78;4308724;33;20112;-94
2023/08/05 02:25:30;;;;;;;0.20;0.20;;;;;;;22.20;60.37;98464.53;4308900;33;20118;-93
2023/08/05 02:27:56;;;;;;;0.15;0.15;;;;;;;22.39;60.38;98460.87;4308786;33;20182;-93
2023/08/05 02:30:21;;;;;;;0.22;0.22;;;;;;;22.30;60.37;98466.12;4308686;33;20104;-93
2023/08/05 02:32:47;;;;;;;0.00;0.00;;;;;;;22.56;60.39;98471.44;4308485;33;20367;-94
2023/08/05 02:35:12;;;;;;;0.25;0.25;;;;;;;22.48;60.38;98479.34;4308730;33;20083;-94
2023/08/05 02:37:45;;;;;;;0.73;0.68;;;;;;;22.55;60.39;98458.34;4308403;33;20105;-95
2023/08/05 02:40:11;;;;;;;0.10;0.10;;;;;;;22.59;60.39;98452.56;4308737;33;20092;-94
2023/08/05 02:42:36;;;;;;;0.15;0.15;;;;;;;22.56;60.38;98458.19;4308644;33;20133;-95
2023/08/05 02:45:02;;;;;;;0.20;0.20;;;;;;;22.58;60.38;98468.63;4308655;33;20127;-93
2023/08/05 02:47:28;;;;;;;0.10;0.10;;;;;;;22.36;60.38;98488.53;4320692;33;20421;-94
2023/08/05 02:49:53;;;;;;;0.40;0.28;;;;;;;22.26;60.37;98493.09;4308604;33;20115;-93
2023/08/05 02:52:19;;;;;;;0.35;0.35;;;;;;;22.32;60.37;98479.22;4308369;33;20128;-94
2023/08/05 02:54:44;;;;;;;0.28;0.22;;;;;;;22.37;60.38;98469.00;4320576;33;20088;-94
2023/08/05 02:57:10;;;;;;;0.15;0.05;;;;;;;22.78;60.40;98501.09;4296561;33;20151;-94
2023/08/05 02:59:37;;;;;;;2.78;0.85;;;;;;;22.66;60.40;98537.63;4296471;33;20174;-93
2023/08/05 03:02:03;;;;;;;0.20;0.20;;;;;;;22.53;60.39;98587.62;4296565;33;20100;-92
2023/08/05 03:04:58;;;;;;;;;;;;;;;;;;;;;
2023/08/05 03:07:51;;;;;;;16.08;0.37;;;;;;;22.83;60.40;98637.63;4313263;33;35612;-93
2023/08/05 03:11:01;;;;;;;0.20;0.20;;;;;;;22.52;60.39;98581.47;4310781;33;20793;-94
2023/08/05 03:13:36;;;;;;;0.75;0.30;;;;;;;22.32;60.37;98538.37;4308365;33;20134;-94
2023/08/05 03:16:10;;;;;;;0.15;0.15;;;;;;;22.28;60.38;98537.03;4308359;33;20127;-94
2023/08/05 03:18:36;;;;;;;0.25;0.25;;;;;;;22.27;60.38;98555.75;4296383;33;20100;-93
2023/08/05 03:21:01;;;;;;;1.20;1.08;;;;;;;22.36;60.38;98578.69;4296368;33;20115;-93
2023/08/05 03:23:27;;;;;;;0.00;0.00;;;;;;;22.48;60.38;98571.34;4308400;33;20147;-94
2023/08/05 03:25:53;;;;;;;3.92;0.30;;;;;;;22.43;60.38;98590.34;4296246;33;20425;-92
2023/08/05 03:28:19;;;;;;;0.17;0.17;;;;;;;22.32;60.37;98652.37;4296445;33;20163;-93
2023/08/05 03:30:44;;;;;;;0.30;0.30;;;;;;;22.33;60.38;98680.56;4308184;33;20116;-93
2023/08/05 03:33:09;;;;;;;0.55;0.55;;;;;;;22.17;60.37;98679.53;4296273;33;20134;-91
2023/08/05 03:35:35;;;;;;;0.28;0.28;;;;;;;22.03;60.37;98665.78;4296197;33;20134;-90
2023/08/05 03:38:02;;;;;;;0.52;0.28;;;;;;;21.90;60.36;98608.81;4296047;33;20127;-93
2023/08/05 03:40:27;;;;;;;0.15;0.15;;;;;;;21.93;60.35;98568.78;4295935;33;20143;-92
2023/08/05 03:42:53;;;;;;;0.10;0.10;;;;;;;21.74;60.35;98552.00;4296025;33;20104;-91
2023/08/05 03:45:18;;;;;;;0.57;0.50;;;;;;;21.88;60.36;98537.44;4296073;33;20091;-92
2023/08/05 03:47:44;;;;;;;0.32;0.32;;;;;;;21.78;60.35;98551.75;4307675;33;20127;-91
2023/08/05 03:50:09;;;;;;;0.10;0.10;;;;;;;21.70;60.34;98563.06;4296062;33;20130;-92
2023/08/05 03:52:35;;;;;;;2.17;0.65;;;;;;;21.80;60.34;98560.37;4295876;33;20123;-92
2023/08/05 03:55:00;;;;;;;0.20;0.20;;;;;;;21.86;60.34;98559.75;4307698;33;20476;-92
2023/08/05 03:57:26;;;;;;;0.00;0.00;;;;;;;22.05;60.36;98565.81;4295952;33;20658;-92
2023/08/05 03:59:51;;;;;;;0.25;0.25;;;;;;;21.94;60.35;98554.53;4295829;33;20104;-93
2023/08/05 04:02:19;;;;;;;0.52;0.37;;;;;;;22.09;60.36;98549.59;4295451;33;20096;-93
2023/08/05 04:04:46;;;;;;;0.20;0.20;;;;;;;22.19;60.36;98540.56;4295668;33;20112;-92
2023/08/05 04:07:12;;;;;;;0.05;0.05;;;;;;;22.16;60.37;98540.03;4295612;33;20135;-91
2023/08/05 04:09:38;;;;;;;0.10;0.10;;;;;;;22.27;60.38;98545.13;4295834;33;20126;-92
2023/08/05 04:12:08;;;;;;;0.00;0.00;;;;;;;22.29;60.38;98546.66;4295518;33;20126;-93
2023/08/05 04:14:34;;;;;;;0.03;0.03;;;;;;;22.31;60.37;98541.19;4295989;33;20163;-93
2023/08/05 04:17:02;;;;;;;0.43;0.43;;;;;;;22.26;60.38;98546.94;4295273;33;20146;-93
2023/08/05 04:19:28;;;;;;;0.47;0.47;;;;;;;22.51;60.39;98557.78;4295575;33;20104;-92
2023/08/05 04:21:54;;;;;;;0.00;0.00;;;;;;;22.80;60.40;98563.62;4295446;33;20112;-93
2023/08/05 04:24:22;;;;;;;0.10;0.10;;;;;;;22.58;60.38;98577.38;4297100;33;20155;-93
2023/08/05 04:26:50;;;;;;;0.00;0.00;;;;;;;22.35;60.39;98577.84;4297073;33;20099;-92
2023/08/05 04:29:18;;;;;;;0.70;0.25;;;;;;;22.17;60.36;98584.13;4297329;33;20116;-94
2023/08/05 04:31:44;;;;;;;0.00;0.00;;;;;;;22.29;60.38;98578.47;4297398;33;20104;-93
2023/08/05 04:34:10;;;;;;;0.17;0.15;;;;;;;22.30;60.37;98581.94;4297111;33;20173;-95
2023/08/05 04:36:35;;;;;;;0.00;0.00;;;;;;;22.43;60.38;98576.25;4297106;33;20118;-92
2023/08/05 04:39:03;;;;;;;0.20;0.20;;;;;;;22.37;60.38;98589.13;4297248;33;20748;-93
2023/08/05 04:41:28;;;;;;;0.00;0.00;;;;;;;22.42;60.38;98587.84;4296921;33;20065;-93
2023/08/05 04:43:57;;;;;;;3.30;1.25;;;;;;;22.25;60.37;98593.00;4297152;33;20118;-93
2023/08/05 04:46:31;;;;;;;2.47;0.55;;;;;;;22.03;60.37;98575.69;4297190;33;20139;-93
2023/08/05 04:49:03;;;;;;;0.00;0.00;;;;;;;22.03;60.37;98566.91;4309161;33;20131;-93
2023/08/05 04:51:29;;;;;;;0.47;0.47;;;;;;;22.21;60.37;98548.38;4299530;33;20112;-93
2023/08/05 04:53:55;;;;;;;0.60;0.60;;;;;;;22.31;60.37;98539.38;4305937;33;20521;-93
2023/08/05 04:56:37;;;;;;;0.90;0.32;;;;;;;22.31;60.37;98517.34;4296747;33;20343;-93
2023/08/05 04:59:02;;;;;;;0.10;0.10;;;;;;;22.49;60.38;98519.97;4297637;33;20100;-93
2023/08/05 05:01:28;;;;;;;0.00;0.00;;;;;;;22.46;60.39;98520.25;4296002;33;20108;-92
2023/08/05 05:03:53;;;;;;;0.10;0.10;;;;;;;22.28;60.38;98529.06;4296627;33;20115;-93
2023/08/05 05:06:19;;;;;;;0.00;0.00;;;;;;;22.41;60.38;98522.53;4296568;33;20104;-93
2023/08/05 05:08:44;;;;;;;0.55;0.43;;;;;;;22.55;60.38;98522.81;4309118;33;20355;-93
2023/08/05 05:11:10;;;;;;;4.00;0.20;;;;;;;22.68;60.39;98535.66;4308785;33;20484;-91
2023/08/05 05:13:38;;;;;;;0.10;0.10;;;;;;;22.86;60.40;98533.00;4296625;33;20113;-92
2023/08/05 05:16:04;;;;;;;1.15;0.62;;;;;;;22.96;60.40;98531.09;4297196;33;20104;-93
2023/08/05 05:18:29;;;;;;;0.28;0.28;;;;;;;23.17;60.42;98515.59;4296757;33;20449;-92
2023/08/05 05:20:55;;;;;;;0.43;0.43;;;;;;;23.43;60.43;98512.91;4296908;33;20127;-93
2023/08/05 05:23:20;;;;;;;0.00;0.00;;;;;;;23.75;60.45;98509.53;4297005;33;20088;-93
2023/08/05 05:25:46;;;;;;;0.10;0.10;;;;;;;23.72;60.44;98493.09;4296206;33;20123;-92
2023/08/05 05:28:12;;;;;;;0.00;0.00;;;;;;;24.01;60.47;98496.09;4308385;33;20112;-92
2023/08/05 05:30:37;;;;;;;0.65;0.65;;;;;;;24.04;60.46;98498.44;4308355;33;20138;-93
2023/08/05 05:33:03;;;;;;;0.10;0.10;;;;;;;24.00;60.46;98498.94;4296070;33;20369;-92
2023/08/05 05:35:28;;;;;;;0.32;0.32;;;;;;;24.05;60.46;98494.78;4296436;33;20093;-92
2023/08/05 05:37:54;;;;;;;0.60;0.55;;;;;;;24.25;60.48;98489.97;4295846;33;20116;-93
2023/08/05 05:40:19;;;;;;;2.92;1.40;;;;;;;24.36;60.47;98488.81;4296103;33;20116;-92
2023/08/05 05:42:45;;;;;;;0.10;0.10;;;;;;;24.41;60.48;98495.31;4296236;33;20108;-92
2023/08/05 05:45:10;;;;;;;0.30;0.30;;;;;;;24.50;60.49;98493.47;4296261;33;20164;-92
2023/08/05 05:47:35;;;;;;;1.90;0.80;;;;;;;24.75;60.49;98484.44;4296188;33;20351;-92
2023/08/05 05:50:03;;;;;;;0.00;0.00;;;;;;;24.77;60.50;98484.28;4296353;33;20128;-92
2023/08/05 05:52:28;;;;;;;0.30;0.28;;;;;;;24.91;60.51;98494.25;4296401;33;20119;-92
2023/08/05 05:54:54;;;;;;;1.62;0.93;;;;;;;25.03;60.52;98500.88;4296013;33;20095;-92
2023/08/05 05:57:22;;;;;;;0.00;0.00;;;;;;;25.19;60.52;98499.16;4296500;33;20108;-91
2023/08/05 05:59:47;;;;;;;0.00;0.00;;;;;;;25.40;60.52;98496.75;4296434;33;20136;-91
2023/08/05 06:02:13;;;;;;;1.17;0.73;;;;;;;25.46;60.53;98498.72;4308111;33;20370;-92
2023/08/05 06:04:39;;;;;;;0.37;0.37;;;;;;;25.77;60.55;98485.41;4296051;33;20112;-92
2023/08/05 06:07:05;;;;;;;0.20;0.20;;;;;;;25.90;60.56;98493.66;4296212;33;20073;-92
2023/08/05 06:09:31;;;;;;;0.20;0.20;;;;;;;25.81;60.56;98504.56;4296166;33;20104;-92
2023/08/05 06:11:57;;;;;;;0.05;0.05;;;;;;;25.96;60.56;98492.94;4296145;33;20206;-92
2023/08/05 06:14:22;;;;;;;0.00;0.00;;;;;;;26.10;60.56;98486.03;4296108;33;20103;-91
2023/08/05 06:16:48;;;;;;;0.15;0.15;;;;;;;26.17;60.57;98494.13;4295970;33;20366;-92
2023/08/05 06:19:13;;;;;;;0.00;0.00;;;;;;;26.48;60.58;98500.22;4296060;33;20112;-92
2023/08/05 06:21:40;;;;;;;0.10;0.10;;;;;;;26.58;60.58;98495.47;4295863;33;20125;-91
2023/08/05 06:24:05;;;;;;;0.40;0.40;;;;;;;26.58;60.60;98499.97;4296103;33;20096;-93
2023/08/05 06:26:30;;;;;;;0.25;0.17;;;;;;;26.86;60.60;98503.69;4296093;33;20156;-92
2023/08/05 06:28:56;;;;;;;0.00;0.00;;;;;;;26.87;60.60;98502.69;4296081;33;20126;-92
2023/08/05 06:31:21;;;;;;;0.30;0.30;;;;;;;27.09;60.62;98505.50;4295825;33;20159;-92
2023/08/05 06:33:47;;;;;;;0.08;0.08;;;;;;;27.11;60.61;98487.44;4296131;33;20112;-91
2023/08/05 06:36:12;;;;;;;0.00;0.00;;;;;;;27.34;60.63;98493.50;4299326;33;20120;-92
2023/08/05 06:38:38;;;;;;;0.00;0.00;;;;;;;27.57;60.64;98487.19;4299794;33;20121;-92
2023/08/05 06:41:03;;;;;;;0.30;0.30;;;;;;;27.53;60.64;98486.72;4295790;33;20139;-92
2023/08/05 06:43:29;;;;;;;0.13;0.13;;;;;;;27.69;60.63;98493.75;4296007;33;20384;-92
2023/08/05 06:45:54;;;;;;;0.10;0.10;;;;;;;28.00;60.65;98480.06;4295036;33;20173;-92
2023/08/05 06:48:20;;;;;;;0.00;0.00;;;;;;;28.40;60.67;98483.97;4295866;33;20104;-92
2023/08/05 06:50:45;;;;;;;0.20;0.20;;;;;;;28.42;60.68;98492.63;4295955;33;20150;-92
2023/08/05 06:53:11;;;;;;;0.00;0.00;;;;;;;28.32;60.68;98492.94;4295788;33;20110;-93
2023/08/05 06:55:36;;;;;;;0.20;0.20;;;;;;;28.54;60.68;98485.72;4295666;33;20144;-93
2023/08/05 06:58:02;;;;;;;4.12;0.85;;;;;;;28.68;60.69;98487.47;4296037;33;20096;-92
2023/08/05 07:00:27;;;;;;;0.00;0.00;;;;;;;28.66;60.69;98494.06;4295712;33;20104;-92
2023/08/05 07:02:53;;;;;;;0.50;0.50;;;;;;;28.76;60.69;98499.87;4295608;33;20171;-93
2023/08/05 07:05:18;;;;;;;0.00;0.00;;;;;;;28.69;60.70;98507.87;4307761;33;20104;-93
2023/08/05 07:07:44;;;;;;;0.10;0.10;;;;;;;28.71;60.70;98503.16;4295635;33;20128;-93
2023/08/05 07:10:11;;;;;;;1.83;0.55;;;;;;;28.70;60.69;98508.69;4295569;33;20095;-93
2023/08/05 07:12:37;;;;;;;2.40;1.50;;;;;;;28.74;60.70;98510.78;4295957;33;20100;-92
2023/08/05 07:15:03;;;;;;;0.57;0.57;;;;;;;28.72;60.70;98509.34;4295361;33;20146;-92
2023/08/05 07:17:29;;;;;;;2.22;1.00;;;;;;;28.51;60.69;98517.41;4295723;33;20116;-92
2023/08/05 07:19:54;;;;;;;0.00;0.00;;;;;;;28.70;60.69;98524.78;4295736;33;20148;-92
2023/08/05 07:22:20;;;;;;;0.50;0.45;;;;;;;28.71;60.70;98527.25;4295561;33;20110;-93
2023/08/05 07:24:45;;;;;;;0.00;0.00;;;;;;;28.68;60.69;98521.47;4295562;33;20112;-92
2023/08/05 07:27:11;;;;;;;0.00;0.00;;;;;;;28.60;60.69;98511.69;4295377;33;20112;-92
2023/08/05 07:29:38;;;;;;;0.68;0.68;;;;;;;28.46;60.68;98509.13;4295417;33;20118;-93
2023/08/05 07:32:03;;;;;;;0.28;0.28;;;;;;;28.45;60.68;98500.28;4295670;33;20096;-93
2023/08/05 07:34:31;;;;;;;0.00;0.00;;;;;;;28.38;60.68;98504.72;4295146;33;20161;-92
2023/08/05 07:36:58;;;;;;;0.40;0.40;;;;;;;28.56;60.70;98509.59;4295651;33;20112;-92
2023/08/05 07:39:47;;;;;;;0.22;0.22;;;;;;;28.67;60.70;98507.25;4295196;33;20064;-92
2023/08/05 07:42:15;;;;;;;6.75;0.93;;;;;;;28.76;60.70;98505.22;4307497;33;20104;-92
2023/08/05 07:44:42;;;;;;;1.05;0.13;;;;;;;28.89;60.72;98493.81;4295741;33;20073;-91
2023/08/05 07:47:08;;;;;;;2.22;0.93;;;;;;;28.99;60.72;98492.44;4295344;33;20137;-93
2023/08/05 07:49:34;;;;;;;0.35;0.20;;;;;;;28.89;60.71;98500.00;4307525;33;20147;-92
2023/08/05 07:52:00;;;;;;;0.35;0.35;;;;;;;28.81;60.71;98502.78;4295200;33;20358;-92
2023/08/05 07:54:26;;;;;;;0.77;0.77;;;;;;;28.90;60.72;98501.66;4295200;33;20116;-91
2023/08/05 07:56:52;;;;;;;1.02;1.00;;;;;;;28.84;60.70;98491.69;4294983;33;20096;-93
2023/08/05 07:59:20;;;;;;;0.30;0.30;;;;;;;28.93;60.72;98503.94;4308723;33;20121;-92
2023/08/05 08:01:45;;;;;;;0.10;0.10;;;;;;;29.18;60.73;98498.94;4308970;33;20155;-92
2023/08/05 08:04:13;;;;;;;0.60;0.37;;;;;;;29.31;60.73;98492.78;4297018;33;20193;-92
2023/08/05 08:06:39;;;;;;;0.35;0.15;;;;;;;29.58;60.75;98497.28;4296943;33;20745;-91
2023/08/05 08:09:05;;;;;;;0.10;0.10;;;;;;;29.48;60.74;98501.38;4308809;33;20084;-91
2023/08/05 08:11:30;;;;;;;0.57;0.57;;;;;;;29.34;60.73;98511.19;4308936;33;20467;-92
2023/08/05 08:13:56;;;;;;;0.62;0.50;;;;;;;29.40;60.73;98502.34;4296894;33;20210;-92
2023/08/05 08:16:21;;;;;;;0.10;0.10;;;;;;;29.50;60.75;98505.50;4296905;33;20112;-92
2023/08/05 08:18:47;;;;;;;0.60;0.20;;;;;;;29.66;60.75;98506.19;4297539;33;20139;-92
2023/08/05 08:21:12;;;;;;;0.35;0.35;;;;;;;29.74;60.75;98516.72;4303234;33;20465;-91
2023/08/05 08:23:37;;;;;;;0.40;0.40;;;;;;;29.67;60.76;98518.56;4297539;33;20120;-92
2023/08/05 08:26:03;;;;;;;0.30;0.30;;;;;;;29.72;60.75;98526.81;4296464;33;20406;-92
2023/08/05 08:28:28;;;;;;;0.08;0.08;;;;;;;29.89;60.76;98518.22;4296552;33;20150;-92
2023/08/05 08:30:55;;;;;;;0.82;0.52;;;;;;;30.15;60.78;98520.16;4296799;33;20084;-92
2023/08/05 08:33:21;;;;;;;0.55;0.55;;;;;;;30.30;60.79;98535.25;4296584;33;20116;-92
2023/08/05 08:35:48;;;;;;;1.48;0.25;;;;;;;30.40;60.79;98541.88;4308732;33;20108;-91
2023/08/05 08:38:14;;;;;;;0.82;0.45;;;;;;;30.44;60.79;98537.72;4296790;33;20103;-91
2023/08/05 08:40:47;;;;;;;2.62;0.20;;;;;;;30.48;60.80;98548.88;4296578;33;20489;-91
2023/08/05 08:43:22;;;;;;;0.75;0.52;;;;;;;30.53;60.79;98551.81;4296948;33;20100;-91
2023/08/05 08:45:52;;;;;;;0.00;0.00;;;;;;;30.55;60.80;98544.38;4297337;33;20080;-91
2023/08/05 08:48:18;;;;;;;0.55;0.43;;;;;;;30.56;60.80;98551.38;4297064;33;20096;-91
2023/08/05 08:50:44;;;;;;;1.20;0.43;;;;;;;30.61;60.80;98557.00;4297138;33;20096;-92
2023/08/05 08:53:13;;;;;;;0.30;0.30;;;;;;;30.68;60.80;98552.44;4296789;33;20064;-91
2023/08/05 08:55:39;;;;;;;0.20;0.20;;;;;;;30.64;60.81;98548.53;4297102;33;20100;-91
2023/08/05 08:58:05;;;;;;;1.02;0.85;;;;;;;30.63;60.80;98546.88;4297151;33;20096;-90
2023/08/05 09:00:31;;;;;;;0.75;0.75;;;;;;;30.65;60.80;98550.16;4296861;33;20091;-92
2023/08/05 09:02:57;;;;;;;0.47;0.47;;;;;;;30.69;60.80;98546.03;4297174;33;20112;-91
2023/08/05 09:05:22;;;;;;;0.25;0.25;;;;;;;30.66;60.81;98546.44;4297041;33;20107;-91
2023/08/05 09:07:49;;;;;;;0.40;0.40;;;;;;;30.61;60.80;98545.41;4297041;33;20114;-92
2023/08/05 09:10:14;;;;;;;0.62;0.62;;;;;;;30.52;60.79;98544.75;4308637;33;20100;-91
2023/08/05 09:12:40;;;;;;;6.03;1.05;;;;;;;30.40;60.80;98549.91;4296715;33;20103;-91
2023/08/05 09:15:06;;;;;;;0.25;0.25;;;;;;;30.35;60.79;98548.88;4297051;33;20415;-91
2023/08/05 09:17:37;;;;;;;0.77;0.77;;;;;;;30.19;60.78;98542.88;4308948;33;20110;-91
2023/08/05 09:20:22;;;;;;;1.17;1.15;;;;;;;30.20;60.78;98541.00;4297034;33;20461;-91
2023/08/05 09:22:57;;;;;;;0.30;0.30;;;;;;;30.26;60.79;98532.13;4298679;33;20163;-91
2023/08/05 09:25:23;;;;;;;1.23;0.75;;;;;;;30.16;60.79;98526.34;4297132;33;20130;-91
2023/08/05 09:27:52;;;;;;;0.70;0.70;;;;;;;30.23;60.79;98529.84;4297180;33;20056;-92
2023/08/05 09:30:17;;;;;;;0.37;0.37;;;;;;;30.47;60.80;98531.13;4297418;33;20099;-92
2023/08/05 09:32:46;;;;;;;0.32;0.32;;;;;;;30.44;60.79;98539.59;4297014;33;20154;-92
2023/08/05 09:35:12;;;;;;;0.52;0.52;;;;;;;30.70;60.81;98525.38;4297129;33;20752;-91
2023/08/05 09:37:40;;;;;;;0.60;0.60;;;;;;;30.84;60.81;98530.53;4297042;33;20170;-91
2023/08/05 09:40:19;;;;;;;0.82;0.60;;;;;;;30.97;60.82;98535.03;4297329;33;20092;-91
2023/08/05 09:42:48;;;;;;;0.93;0.93;;;;;;;31.10;60.83;98529.66;4297008;33;20719;-91
2023/08/05 09:45:18;;;;;;;0.90;0.90;;;;;;;31.18;60.84;98525.94;4296894;33;20163;-91
2023/08/05 09:47:46;;;;;;;0.85;0.68;;;;;;;31.28;60.84;98528.19;4296852;33;20582;-91
2023/08/05 09:50:13;;;;;;;1.37;1.10;;;;;;;31.30;60.84;98518.88;4297146;33;20099;-91
2023/08/05 09:52:39;;;;;;;1.40;0.73;;;;;;;31.31;60.84;98515.16;4297022;33;20115;-91
2023/08/05 09:55:18;;;;;;;0.55;0.55;;;;;;;31.28;60.84;98518.28;4296932;33;20743;-91
2023/08/05 09:57:44;;;;;;;0.77;0.77;;;;;;;31.00;60.82;98520.38;4297124;33;20118;-91
2023/08/05 10:00:11;;;;;;;4.35;1.12;;;;;;;31.15;60.83;98519.09;4297009;33;20096;-90
2023/08/05 10:02:43;;;;;;;3.60;0.82;;;;;;;31.33;60.85;98525.69;4297346;33;20088;-90
2023/08/05 10:05:12;;;;;;;0.40;0.40;;;;;;;31.41;60.84;98522.75;4300130;33;20056;-91
2023/08/05 10:07:39;;;;;;;1.80;0.70;;;;;;;31.70;60.86;98526.78;4297244;33;20154;-91
2023/08/05 10:10:07;;;;;;;2.78;1.25;;;;;;;31.77;60.86;98533.00;4297250;33;20114;-91
2023/08/05 10:12:37;;;;;;;1.05;0.75;;;;;;;31.94;60.87;98526.09;4296842;33;20397;-91
2023/08/05 10:15:03;;;;;;;1.17;1.08;;;;;;;32.00;60.87;98533.28;4296815;33;20184;-90
2023/08/05 10:17:28;;;;;;;1.15;1.02;;;;;;;32.12;60.87;98530.72;4296672;33;20096;-91
2023/08/05 10:19:53;;;;;;;5.70;0.95;;;;;;;32.20;60.88;98533.16;4296298;33;23193;-90
2023/08/05 10:22:25;;;;;;;0.50;0.50;;;;;;;32.26;60.88;98528.81;4295959;33;20147;-91
2023/08/05 10:24:58;;;;;;;3.30;1.15;;;;;;;32.08;60.88;98531.38;4296647;33;20112;-90
2023/08/05 10:27:36;;;;;;;0.35;0.35;;;;;;;32.05;60.88;98524.56;4296687;33;20084;-91
2023/08/05 10:30:09;;;;;;;0.60;0.60;;;;;;;32.03;60.87;98519.41;4296078;33;20092;-91
2023/08/05 10:32:35;;;;;;;1.05;0.93;;;;;;;32.06;60.88;98512.75;4295960;33;20687;-90
2023/08/05 10:35:24;;;;;;;2.05;1.02;;;;;;;32.25;60.89;98519.06;4295849;33;20116;-91
2023/08/05 10:37:50;;;;;;;1.27;1.17;;;;;;;32.13;60.89;98526.97;4305325;33;20096;-91
2023/08/05 10:40:40;;;;;;;2.37;1.75;;;;;;;32.22;60.88;98528.41;4296214;33;20092;-91
2023/08/05 10:43:05;;;;;;;2.28;1.52;;;;;;;32.48;60.90;98519.31;4308381;33;20072;-91
2023/08/05 10:45:34;;;;;;;1.58;0.90;;;;;;;32.52;60.90;98520.53;4296374;33;20103;-90
2023/08/05 10:48:00;;;;;;;0.77;0.77;;;;;;;32.64;60.91;98515.22;4295987;33;20093;-90
2023/08/05 10:50:34;;;;;;;0.62;0.62;;;;;;;32.63;60.91;98519.78;4308313;33;20095;-91
2023/08/05 10:53:06;;;;;;;1.50;1.40;;;;;;;32.73;60.91;98516.63;4295887;33;20108;-90
2023/08/05 10:55:44;;;;;;;2.75;1.25;;;;;;;32.85;60.92;98514.84;4295578;33;20069;-90
2023/08/05 10:58:10;;;;;;;2.83;0.90;;;;;;;32.84;60.92;98523.16;4308247;33;20116;-90
2023/08/05 11:00:37;;;;;;;1.35;1.25;;;;;;;32.87;60.92;98517.31;4295201;33;22587;-89
2023/08/05 11:03:27;;;;;;;1.10;1.00;;;;;;;33.00;60.92;98517.22;4295611;33;20108;-89
2023/08/05 11:05:53;;;;;;;2.20;1.05;;;;;;;33.09;60.94;98520.44;4307838;33;20127;-89
2023/08/05 11:08:19;;;;;;;0.75;0.75;;;;;;;32.95;60.93;98514.37;4308204;33;20084;-90
2023/08/05 11:10:45;;;;;;;0.95;0.95;;;;;;;33.07;60.92;98517.13;4295897;33;20102;-89
2023/08/05 11:13:10;;;;;;;1.27;1.17;;;;;;;33.12;60.93;98507.31;4307782;33;20100;-89
2023/08/05 11:15:40;;;;;;;1.12;1.02;;;;;;;32.99;60.92;98510.16;4307721;33;20106;-90
2023/08/05 11:18:06;;;;;;;6.43;1.12;;;;;;;32.91;60.92;98516.69;4295743;33;20453;-90
2023/08/05 11:20:32;;;;;;;2.47;1.42;;;;;;;32.80;60.92;98513.88;4295182;33;20087;-90
2023/08/05 11:22:58;;;;;;;0.37;0.37;;;;;;;32.70;60.91;98511.66;4307506;33;20484;-89
2023/08/05 11:25:23;;;;;;;0.75;0.75;;;;;;;32.63;60.91;98524.34;4307921;33;20505;-89
2023/08/05 11:27:52;;;;;;;0.85;0.85;;;;;;;32.33;60.90;98527.72;4307227;33;20393;-90
2023/08/05 11:30:18;;;;;;;1.45;1.35;;;;;;;32.33;60.89;98529.56;4307547;33;20158;-89
2023/08/05 11:32:57;;;;;;;1.40;1.30;;;;;;;32.33;60.89;98527.72;4294934;33;20120;-89
2023/08/05 11:35:26;;;;;;;2.35;1.85;;;;;;;32.40;60.90;98527.66;4295333;33;20086;-89
2023/08/05 11:37:51;;;;;;;1.02;1.00;;;;;;;32.42;60.89;98522.91;4307298;33;20710;-90
2023/08/05 11:40:17;;;;;;;1.35;0.85;;;;;;;32.61;60.91;98527.28;4294933;33;20183;-90
2023/08/05 11:42:42;;;;;;;1.10;1.00;;;;;;;32.75;60.91;98535.25;4306786;33;20104;-88
2023/08/05 11:45:14;;;;;;;1.40;1.05;;;;;;;32.68;60.90;98538.00;4294719;33;20107;-90
2023/08/05 11:47:40;;;;;;;2.33;1.58;;;;;;;32.74;60.91;98539.00;4295182;33;20080;-88
2023/08/05 11:50:06;;;;;;;0.95;0.73;;;;;;;32.57;60.90;98539.53;4294807;33;20532;-90
2023/08/05 11:52:32;;;;;;;2.67;1.92;;;;;;;32.80;60.92;98535.44;4294809;33;20096;-90
2023/08/05 11:54:58;;;;;;;1.25;1.15;;;;;;;32.85;60.92;98532.91;4307385;33;20138;-90
2023/08/05 11:57:24;;;;;;;0.47;0.47;;;;;;;32.74;60.91;98529.03;4295008;33;20214;-89
2023/08/05 11:59:51;;;;;;;0.10;0.10;;;;;;;32.67;60.91;98529.09;4319047;33;20144;-90
2023/08/05 12:02:17;;;;;;;3.08;1.45;;;;;;;32.80;60.92;98527.34;4295236;33;20069;-90
2023/08/05 12:04:50;;;;;;;1.17;1.10;;;;;;;32.91;60.92;98521.25;4306927;33;20103;-89
2023/08/05 12:07:19;;;;;;;1.25;1.15;;;;;;;33.08;60.93;98508.00;4294953;33;20104;-90
2023/08/05 12:09:45;;;;;;;0.28;0.28;;;;;;;33.31;60.93;98510.03;4306864;33;20111;-90
2023/08/05 12:12:15;;;;;;;0.82;0.60;;;;;;;33.42;60.95;98522.81;4307083;33;20109;-90
2023/08/05 12:14:41;;;;;;;0.40;0.40;;;;;;;33.61;60.96;98507.44;4295180;33;20163;-90
2023/08/05 12:17:06;;;;;;;1.25;1.23;;;;;;;33.60;60.96;98516.53;4306949;33;20092;-90
2023/08/05 12:19:32;;;;;;;1.52;1.42;;;;;;;33.42;60.95;98509.31;4295143;33;20135;-90
2023/08/05 12:22:00;;;;;;;0.88;0.88;;;;;;;33.41;60.94;98516.59;4295091;33;20171;-91
2023/08/05 12:24:25;;;;;;;0.47;0.47;;;;;;;33.51;60.95;98513.34;4295149;33;20095;-90